createdAt,value
2019-03-17T07:09:36.000Z,7.50
2019-03-17T07:31:52.848Z,7.00
2019-03-17T07:34:21.733Z,8.80
2019-03-17T07:36:50.564Z,8.90
2019-03-17T07:39:19.515Z,9.00
2019-03-17T07:41:48.509Z,9.20
2019-03-17T07:44:17.398Z,9.50
2019-03-17T07:49:14.976Z,9.70
2019-03-17T08:01:37.689Z,10.20
2019-03-17T08:06:35.266Z,13.30
2019-03-17T08:09:05.590Z,16.30
2019-03-17T08:16:31.449Z,17.00
2019-03-17T08:19:00.333Z,19.60
2019-03-17T08:21:29.206Z,19.80
2019-03-17T08:23:58.119Z,20.00
2019-03-17T08:26:27.108Z,20.10
2019-03-17T08:28:55.998Z,19.90
2019-03-17T08:31:24.889Z,19.80
2019-03-17T08:33:53.775Z,19.70
2019-03-17T08:36:22.672Z,20.20
2019-03-17T08:38:51.664Z,20.60
2019-03-17T08:41:20.548Z,21.00
2019-03-17T08:43:54.219Z,21.30
2019-03-17T08:46:19.975Z,21.40
2019-03-17T08:48:48.969Z,21.20
2019-03-17T08:51:17.976Z,21.30
2019-03-17T08:53:46.851Z,21.70
2019-03-17T08:56:15.745Z,21.70
2019-03-17T08:58:44.636Z,22.10
2019-03-17T09:01:13.520Z,22.60
2019-03-17T09:03:42.414Z,22.70
2019-03-17T09:06:11.275Z,22.70
2019-03-17T09:08:40.196Z,22.70
2019-03-17T09:11:09.190Z,22.80
2019-03-17T09:13:38.184Z,22.80
2019-03-17T09:16:07.278Z,22.80
2019-03-17T09:18:36.170Z,22.60
2019-03-17T09:21:05.166Z,22.70
2019-03-17T09:23:34.158Z,22.70
2019-03-17T09:26:03.252Z,22.70
2019-03-17T09:28:32.249Z,22.60
2019-03-17T09:31:03.829Z,22.70
2019-03-17T09:33:31.750Z,23.00
2019-03-17T09:36:00.587Z,23.00
2019-03-17T09:38:29.463Z,22.70
2019-03-17T09:40:58.388Z,22.50
2019-03-17T09:43:27.302Z,22.50
2019-03-17T09:45:56.149Z,22.50
2019-03-17T09:48:25.131Z,22.20
2019-03-17T09:50:53.986Z,22.00
2019-03-17T09:53:22.843Z,21.90
2019-03-17T09:55:51.743Z,21.80
2019-03-17T09:58:20.610Z,21.60
2019-03-17T10:00:49.512Z,21.50
2019-03-17T10:03:18.446Z,21.50
2019-03-17T10:05:49.462Z,21.80
2019-03-17T10:08:17.783Z,21.90
2019-03-17T10:10:46.659Z,21.90
2019-03-17T10:13:15.500Z,22.00
2019-03-17T10:15:44.349Z,22.60
2019-03-17T10:18:13.272Z,23.00
2019-03-17T10:20:42.233Z,23.00
2019-03-17T10:23:11.075Z,23.10
2019-03-17T10:25:40.019Z,23.60
2019-03-17T10:28:08.855Z,24.10
2019-03-17T10:30:37.797Z,24.50
2019-03-17T10:33:06.721Z,24.60
2019-03-17T10:35:35.668Z,24.00
2019-03-17T10:38:04.521Z,23.40
2019-03-17T10:40:33.457Z,22.80
2019-03-17T10:43:02.304Z,22.20
2019-03-17T10:45:31.246Z,21.90
2019-03-17T10:48:00.127Z,21.30
2019-03-17T10:50:29.018Z,20.90
2019-03-17T10:52:58.044Z,20.70
2019-03-17T10:55:26.889Z,20.40
2019-03-17T10:57:55.801Z,20.20
2019-03-17T11:00:24.842Z,20.00
2019-03-17T11:02:53.694Z,20.00
2019-03-17T11:05:22.647Z,19.80
2019-03-17T11:07:51.518Z,19.70
2019-03-17T11:10:20.396Z,19.60
2019-03-17T11:12:49.243Z,19.70
2019-03-17T11:15:22.060Z,19.70
2019-03-17T11:17:50.943Z,19.40
2019-03-17T11:20:19.893Z,19.40
2019-03-17T11:22:48.745Z,19.40
2019-03-17T11:25:18.721Z,19.30
2019-03-17T11:27:47.567Z,19.20
2019-03-17T11:30:17.212Z,19.30
2019-03-17T11:32:46.245Z,19.20
2019-03-17T11:35:15.117Z,19.20
2019-03-17T11:37:44.000Z,19.10
2019-03-17T11:40:15.498Z,19.10
2019-03-17T11:42:44.352Z,19.10
2019-03-17T11:45:14.222Z,19.20
2019-03-17T11:47:43.436Z,19.20
2019-03-17T11:50:19.147Z,19.30
2019-03-17T11:52:48.245Z,19.40
2019-03-17T11:55:17.331Z,19.30
2019-03-17T11:57:46.402Z,19.20
2019-03-17T12:00:19.093Z,19.30
2019-03-17T12:02:47.939Z,19.30
2019-03-17T12:05:16.784Z,19.20
2019-03-17T12:07:45.732Z,19.10
2019-03-17T12:10:18.510Z,19.00
2019-03-17T12:12:47.395Z,18.90
2019-03-17T12:15:21.816Z,18.90
2019-03-17T12:17:50.656Z,18.90
2019-03-17T12:20:19.541Z,18.90
2019-03-17T12:22:48.394Z,18.80
2019-03-17T12:25:18.445Z,18.70
2019-03-17T12:27:47.432Z,18.80
2019-03-17T12:30:23.649Z,18.80
2019-03-17T12:32:53.232Z,18.70
2019-03-17T12:35:22.480Z,18.80
2019-03-17T12:37:51.473Z,18.90
2019-03-17T12:40:20.336Z,18.90
2019-03-17T12:42:49.185Z,19.00
2019-03-17T12:45:18.223Z,19.00
2019-03-17T12:47:47.056Z,19.10
2019-03-17T12:50:20.529Z,19.20
2019-03-17T12:52:49.425Z,19.20
2019-03-17T12:55:18.291Z,19.20
2019-03-17T12:57:47.150Z,19.30
2019-03-17T13:00:26.930Z,19.40
2019-03-17T13:02:55.882Z,19.30
2019-03-17T13:05:24.727Z,19.40
2019-03-17T13:07:53.604Z,19.40
2019-03-17T13:10:22.851Z,19.50
2019-03-17T13:12:51.691Z,19.50
2019-03-17T13:15:20.573Z,19.60
2019-03-17T13:17:49.436Z,19.60
2019-03-17T13:20:20.232Z,19.70
2019-03-17T13:22:49.116Z,19.80
2019-03-17T13:25:17.993Z,19.80
2019-03-17T13:27:46.795Z,19.70
2019-03-17T13:30:19.069Z,19.80
2019-03-17T13:32:47.912Z,19.80
2019-03-17T13:35:16.811Z,19.80
2019-03-17T13:37:45.742Z,19.80
2019-03-17T13:40:28.300Z,19.90
2019-03-17T13:42:47.060Z,19.90
2019-03-17T13:45:15.949Z,20.00
2019-03-17T13:47:44.792Z,20.00
2019-03-17T13:50:16.572Z,20.00
2019-03-17T13:52:45.580Z,20.00
2019-03-17T13:55:14.430Z,20.10
2019-03-17T13:57:46.140Z,20.10
2019-03-17T14:00:15.825Z,20.20
2019-03-17T14:02:44.673Z,20.20
2019-03-17T14:05:14.212Z,20.20
2019-03-17T14:07:43.105Z,20.20
2019-03-17T14:10:16.694Z,20.10
2019-03-17T14:12:45.543Z,20.10
2019-03-17T14:15:15.258Z,20.00
2019-03-17T14:17:44.167Z,20.00
2019-03-17T14:20:21.175Z,20.00
2019-03-17T14:22:50.253Z,19.90
2019-03-17T14:25:33.367Z,19.90
2019-03-17T14:28:02.206Z,19.90
2019-03-17T14:30:31.043Z,19.90
2019-03-17T14:32:59.932Z,19.80
2019-03-17T14:35:28.876Z,19.80
2019-03-17T14:37:57.861Z,19.80
2019-03-17T14:40:26.692Z,19.80
2019-03-17T14:42:55.858Z,19.80
2019-03-17T14:45:24.825Z,19.80
2019-03-17T14:47:54.680Z,19.80
2019-03-17T14:50:25.250Z,19.80
2019-03-17T14:52:54.130Z,19.80
2019-03-17T14:55:22.967Z,19.80
2019-03-17T14:57:51.954Z,19.70
2019-03-17T15:00:22.124Z,19.60
2019-03-17T15:02:50.968Z,19.50
2019-03-17T15:05:19.991Z,19.50
2019-03-17T15:07:48.966Z,19.50
2019-03-17T15:10:21.364Z,19.50
2019-03-17T15:12:50.242Z,19.40
2019-03-17T15:15:20.956Z,19.30
2019-03-17T15:17:49.795Z,19.10
2019-03-17T15:20:25.312Z,19.00
2019-03-17T15:22:54.164Z,18.90
2019-03-17T15:25:23.097Z,18.70
2019-03-17T15:27:51.991Z,18.60
2019-03-17T15:30:25.517Z,18.60
2019-03-17T15:32:54.360Z,18.50
2019-03-17T15:35:23.239Z,18.50
2019-03-17T15:37:52.109Z,18.40
2019-03-17T15:40:21.814Z,18.30
2019-03-17T15:42:50.648Z,18.30
2019-03-17T15:45:23.290Z,18.30
2019-03-17T15:47:52.170Z,18.30
2019-03-17T15:50:28.384Z,18.10
2019-03-17T15:52:57.263Z,18.00
2019-03-17T15:55:26.153Z,17.80
2019-03-17T15:57:55.032Z,17.70
2019-03-17T16:00:26.396Z,17.50
2019-03-17T16:02:54.976Z,17.30
2019-03-17T16:05:23.961Z,17.10
2019-03-17T16:07:52.807Z,16.90
2019-03-17T16:10:28.828Z,16.80
2019-03-17T16:12:57.722Z,16.60
2019-03-17T16:15:26.555Z,16.50
2019-03-17T16:17:55.398Z,16.30
2019-03-17T16:20:25.082Z,16.20
2019-03-17T16:22:54.015Z,16.10
2019-03-17T16:25:24.824Z,16.00
2019-03-17T16:27:53.700Z,15.90
2019-03-17T16:30:24.183Z,15.80
2019-03-17T16:32:53.126Z,15.70
2019-03-17T16:35:21.952Z,15.60
2019-03-17T16:37:50.853Z,15.60
2019-03-17T16:40:22.161Z,15.40
2019-03-17T16:42:53.564Z,15.30
2019-03-17T16:45:21.530Z,15.30
2019-03-17T16:47:50.466Z,15.20
2019-03-17T16:50:21.481Z,15.10
2019-03-17T16:52:50.456Z,15.00
2019-03-17T16:55:19.396Z,15.00
2019-03-17T16:57:48.350Z,14.90
2019-03-17T17:00:24.381Z,14.80
2019-03-17T17:02:53.514Z,14.70
2019-03-17T17:05:23.257Z,14.60
2019-03-17T17:07:52.341Z,14.60
2019-03-17T17:10:25.116Z,14.50
2019-03-17T17:12:53.951Z,14.40
2019-03-17T17:15:33.595Z,14.40
2019-03-17T17:18:02.752Z,14.30
2019-03-17T17:20:36.920Z,14.20
2019-03-17T17:23:05.792Z,14.20
2019-03-17T17:25:34.632Z,14.10
2019-03-17T17:28:03.476Z,14.10
2019-03-17T17:30:32.346Z,14.10
2019-03-17T17:33:01.183Z,14.00
2019-03-17T17:35:30.037Z,14.00
2019-03-17T17:37:58.900Z,13.90
2019-03-17T17:40:28.235Z,13.90
2019-03-17T17:42:57.171Z,13.80
2019-03-17T17:45:26.454Z,13.80
2019-03-17T17:47:55.292Z,13.80
2019-03-17T17:50:26.452Z,13.70
2019-03-17T17:52:55.347Z,13.70
2019-03-17T17:55:24.197Z,13.70
2019-03-17T17:57:53.411Z,13.60
2019-03-17T18:00:27.099Z,13.60
2019-03-17T18:02:58.601Z,13.50
2019-03-17T18:05:26.482Z,13.40
2019-03-17T18:07:55.372Z,13.30
2019-03-17T18:10:24.264Z,13.20
2019-03-17T18:12:53.157Z,13.10
2019-03-17T18:15:24.759Z,13.00
2019-03-17T18:17:53.593Z,13.00
2019-03-17T18:20:22.627Z,12.90
2019-03-17T18:22:51.500Z,12.80
2019-03-17T18:25:23.471Z,12.80
2019-03-17T18:27:52.315Z,12.70
2019-03-17T18:30:25.407Z,12.70
2019-03-17T18:32:54.295Z,12.60
2019-03-17T18:35:23.185Z,12.50
2019-03-17T18:37:52.030Z,12.50
2019-03-17T18:40:21.588Z,12.50
2019-03-17T18:42:50.536Z,12.50
2019-03-17T18:45:26.283Z,12.40
2019-03-17T18:47:57.452Z,12.50
2019-03-17T18:50:25.666Z,12.50
2019-03-17T18:52:54.512Z,12.40
2019-03-17T18:55:23.391Z,12.40
2019-03-17T18:57:53.260Z,12.30
2019-03-17T19:00:24.191Z,12.30
2019-03-17T19:02:53.085Z,12.30
2019-03-17T19:05:21.929Z,12.30
2019-03-17T19:07:50.768Z,12.20
2019-03-17T19:10:20.572Z,12.20
2019-03-17T19:12:49.409Z,12.20
2019-03-17T19:15:19.150Z,12.10
2019-03-17T19:17:48.054Z,12.10
2019-03-17T19:20:18.756Z,12.10
2019-03-17T19:22:47.656Z,12.20
2019-03-17T19:25:18.556Z,12.20
2019-03-17T19:27:47.427Z,12.30
2019-03-17T19:30:17.532Z,12.30
2019-03-17T19:32:47.047Z,12.20
2019-03-17T19:35:16.095Z,12.20
2019-03-17T19:37:44.946Z,12.20
2019-03-17T19:40:18.766Z,12.10
2019-03-17T19:42:57.862Z,12.20
2019-03-17T19:45:18.094Z,12.10
2019-03-17T19:47:47.040Z,12.00
2019-03-17T19:50:22.874Z,12.00
2019-03-17T19:52:51.767Z,11.90
2019-03-17T19:55:20.767Z,11.90
2019-03-17T19:57:49.711Z,11.90
2019-03-17T20:00:19.586Z,12.00
2019-03-17T20:02:48.445Z,12.30
2019-03-17T20:05:17.756Z,12.40
2019-03-17T20:07:46.676Z,12.50
2019-03-17T20:10:27.524Z,12.60
2019-03-17T20:13:10.001Z,12.60
2019-03-17T20:15:27.787Z,12.70
2019-03-17T20:17:56.688Z,12.80
2019-03-17T20:20:25.720Z,12.80
2019-03-17T20:22:54.889Z,12.80
2019-03-17T20:25:23.745Z,12.90
2019-03-17T20:27:52.738Z,13.00
2019-03-17T20:30:21.866Z,13.10
2019-03-17T20:32:50.818Z,13.10
2019-03-17T20:35:19.724Z,13.10
2019-03-17T20:37:48.684Z,13.10
2019-03-17T20:40:18.243Z,13.10
2019-03-17T20:42:47.219Z,13.20
2019-03-17T20:45:20.052Z,13.20
2019-03-17T20:47:47.293Z,13.10
2019-03-17T20:50:16.930Z,13.10
2019-03-17T20:52:46.054Z,13.10
2019-03-17T20:55:15.349Z,13.00
2019-03-17T20:57:44.563Z,13.00
2019-03-17T21:00:15.444Z,12.90
2019-03-17T21:02:44.315Z,12.90
2019-03-17T21:05:13.512Z,12.90
2019-03-17T21:07:42.694Z,12.90
2019-03-17T21:10:13.401Z,12.90
2019-03-17T21:12:43.650Z,13.00
2019-03-17T21:15:15.179Z,13.00
2019-03-17T21:17:44.086Z,13.10
2019-03-17T21:20:18.814Z,13.10
2019-03-17T21:22:47.809Z,13.10
2019-03-17T21:25:17.422Z,13.20
2019-03-17T21:27:46.510Z,13.20
2019-03-17T21:30:32.092Z,13.20
2019-03-17T21:33:01.085Z,13.20
2019-03-17T21:35:30.489Z,13.20
2019-03-17T21:37:59.379Z,13.20
2019-03-17T21:40:28.373Z,13.20
2019-03-17T21:42:57.962Z,13.20
2019-03-17T21:45:27.758Z,13.20
2019-03-17T21:47:57.401Z,13.20
2019-03-17T21:50:27.729Z,13.20
2019-03-17T21:52:57.522Z,13.30
2019-03-17T21:55:27.556Z,13.30
2019-03-17T21:57:56.752Z,13.20
2019-03-17T22:00:25.643Z,13.30
2019-03-17T22:02:55.147Z,13.40
2019-03-17T22:05:24.960Z,13.40
2019-03-17T22:07:53.954Z,13.40
2019-03-17T22:10:22.946Z,13.20
2019-03-17T22:12:51.837Z,13.00
2019-03-17T22:15:20.728Z,12.80
2019-03-17T22:17:49.721Z,12.60
2019-03-17T22:20:18.612Z,12.40
2019-03-17T22:22:47.504Z,12.30
2019-03-17T22:25:17.520Z,12.10
2019-03-17T22:27:46.515Z,11.90
2019-03-17T22:30:22.240Z,11.80
2019-03-17T22:32:51.158Z,11.60
2019-03-17T22:35:20.047Z,11.50
2019-03-17T22:37:49.046Z,11.30
2019-03-17T22:40:19.795Z,11.20
2019-03-17T22:42:48.768Z,11.10
2019-03-17T22:45:18.580Z,10.90
2019-03-17T22:47:47.473Z,10.80
2019-03-17T22:50:20.055Z,10.70
2019-03-17T22:52:48.939Z,10.70
2019-03-17T22:55:17.829Z,10.60
2019-03-17T22:57:46.722Z,10.50
2019-03-17T23:00:22.171Z,10.40
2019-03-17T23:02:51.261Z,10.40
2019-03-17T23:05:20.256Z,10.30
2019-03-17T23:07:49.249Z,10.20
2019-03-17T23:10:18.124Z,10.20
2019-03-17T23:12:47.107Z,10.20
2019-03-17T23:15:16.636Z,10.20
2019-03-17T23:17:45.530Z,10.20
2019-03-17T23:20:18.002Z,10.10
2019-03-17T23:22:46.994Z,10.10
2019-03-17T23:25:15.886Z,10.00
2019-03-17T23:27:44.777Z,9.80
2019-03-17T23:30:18.991Z,9.80
2019-03-17T23:32:49.825Z,9.80
2019-03-17T23:35:19.440Z,9.80
2019-03-17T23:37:48.429Z,9.80
2019-03-17T23:40:18.800Z,9.80
2019-03-17T23:42:47.747Z,9.70
2019-03-17T23:45:17.331Z,9.60
2019-03-17T23:47:46.250Z,9.60
2019-03-17T23:50:15.961Z,9.50
2019-03-17T23:52:44.845Z,9.50
2019-03-17T23:55:14.969Z,9.50
2019-03-17T23:57:43.859Z,9.40
